Time;durP1;ratioP1;P1;durP2;ratioP2;P2;SDS_P1;SDS_P2;PMS_P1;PMS_P2;Temp;Humidity;BMP_temperature;BMP_pressure;BME280_temperature;BME280_humidity;BME280_pressure;Samples;Min_cycle;Max_cycle;Signal;HPM_P1;HPM_P2
2022/06/14 00:01:29;;;;;;;7.13;6.33;;;22.40;99.90;;;;;;5052066;28;20464;-60
2022/06/14 00:03:57;;;;;;;7.50;6.00;;;22.40;99.90;;;;;;5052254;28;20490;-60
2022/06/14 00:06:28;;;;;;;9.03;6.50;;;22.40;99.90;;;;;;5051945;28;20568;-61
2022/06/14 00:08:55;;;;;;;7.27;6.00;;;22.40;99.90;;;;;;5052181;28;20453;-61
2022/06/14 00:11:25;;;;;;;9.50;6.00;;;22.30;99.90;;;;;;5052076;28;20487;-60
2022/06/14 00:13:53;;;;;;;8.30;6.30;;;22.30;99.90;;;;;;5051650;28;20450;-61
2022/06/14 00:16:22;;;;;;;6.37;5.73;;;22.20;99.90;;;;;;5051892;28;20486;-61
2022/06/14 00:18:49;;;;;;;8.10;6.83;;;22.20;99.90;;;;;;5051930;28;20481;-61
2022/06/14 00:21:17;;;;;;;7.87;6.20;;;22.10;99.90;;;;;;5051944;28;20871;-61
2022/06/14 00:23:46;;;;;;;9.23;5.80;;;22.30;99.90;;;;;;5051883;28;20453;-61
2022/06/14 00:26:13;;;;;;;10.23;6.80;;;22.30;99.90;;;;;;5051805;28;20453;-61
2022/06/14 00:28:42;;;;;;;8.93;6.63;;;22.20;99.90;;;;;;5051754;28;20462;-61
2022/06/14 00:31:13;;;;;;;8.93;6.20;;;22.10;99.90;;;;;;5051846;28;20920;-61
2022/06/14 00:33:40;;;;;;;8.57;6.43;;;22.10;99.90;;;;;;5051758;28;20533;-61
2022/06/14 00:36:09;;;;;;;12.87;7.50;;;22.10;99.90;;;;;;5051698;28;20907;-61
2022/06/14 00:38:38;;;;;;;7.27;6.57;;;22.00;99.90;;;;;;5052020;28;20450;-60
2022/06/14 00:41:07;;;;;;;7.53;6.73;;;21.90;99.90;;;;;;5051367;28;20926;-60
2022/06/14 00:43:34;;;;;;;8.73;7.13;;;21.80;99.90;;;;;;5051393;28;20458;-60
2022/06/14 00:46:24;;;;;;;10.13;6.80;;;21.80;99.90;;;;;;5051005;28;20498;-60
2022/06/14 00:49:00;;;;;;;8.47;7.67;;;21.70;99.90;;;;;;5050836;28;20450;-60
2022/06/14 00:51:30;;;;;;;8.80;6.90;;;21.70;99.90;;;;;;5051044;28;20866;-61
2022/06/14 00:54:03;;;;;;;8.43;7.60;;;21.70;99.90;;;;;;5050889;28;20950;-59
2022/06/14 00:56:38;;;;;;;11.43;7.20;;;21.70;99.90;;;;;;5051166;28;20516;-60
2022/06/14 00:59:11;;;;;;;8.60;6.70;;;21.70;99.90;;;;;;5051239;28;20934;-62
2022/06/14 01:01:42;;;;;;;10.30;7.47;;;21.70;99.90;;;;;;5051314;28;20446;-60
2022/06/14 01:04:13;;;;;;;9.27;7.43;;;21.70;99.90;;;;;;5051080;28;20785;-60
2022/06/14 01:06:46;;;;;;;9.27;8.17;;;21.70;99.90;;;;;;5051090;28;20482;-60
2022/06/14 01:09:16;;;;;;;8.60;7.30;;;21.70;99.90;;;;;;5051143;28;20457;-61
2022/06/14 01:11:49;;;;;;;8.47;7.40;;;21.70;99.90;;;;;;5051141;28;20458;-60
2022/06/14 01:14:20;;;;;;;9.13;8.10;;;21.60;99.90;;;;;;5050840;28;20453;-60
2022/06/14 01:16:47;;;;;;;9.27;8.20;;;21.60;99.90;;;;;;5050600;28;20531;-60
2022/06/14 01:19:19;;;;;;;9.17;8.27;;;21.40;99.90;;;;;;5050852;28;20553;-60
2022/06/14 01:21:54;;;;;;;9.30;8.07;;;21.30;99.90;;;;;;5050946;28;20499;-60
2022/06/14 01:24:22;;;;;;;10.13;8.17;;;21.20;99.90;;;;;;5050771;28;20954;-60
2022/06/14 01:26:50;;;;;;;9.97;8.87;;;21.10;99.90;;;;;;5050552;28;20469;-61
2022/06/14 01:29:19;;;;;;;9.50;8.50;;;21.00;99.90;;;;;;5050366;28;20457;-59
2022/06/14 01:31:48;;;;;;;8.63;7.77;;;21.10;99.90;;;;;;5050553;28;20453;-60
2022/06/14 01:34:17;;;;;;;10.03;8.60;;;21.20;99.90;;;;;;5050728;28;20839;-60
2022/06/14 01:36:44;;;;;;;8.87;7.97;;;21.20;99.90;;;;;;5050072;28;20973;-60
2022/06/14 01:39:16;;;;;;;9.10;8.20;;;21.20;99.90;;;;;;5050746;28;20455;-61
2022/06/14 01:41:56;;;;;;;8.43;7.53;;;21.20;99.90;;;;;;5050333;28;20449;-60
2022/06/14 01:44:36;;;;;;;9.70;8.70;;;21.10;99.90;;;;;;5049625;28;20969;-59
2022/06/14 01:47:17;;;;;;;8.47;7.57;;;21.00;99.90;;;;;;5050385;28;21021;-60
2022/06/14 01:52:52;;;;;;;9.27;8.33;;;20.70;99.90;;;;;;5050089;28;20992;-59
2022/06/14 01:55:29;;;;;;;9.63;7.47;;;20.70;99.90;;;;;;5050233;28;20453;-60
2022/06/14 01:58:03;;;;;;;11.17;8.70;;;20.60;99.90;;;;;;5050157;28;20469;-60
2022/06/14 02:00:34;;;;;;;10.57;9.03;;;20.70;99.90;;;;;;5049717;28;20450;-60
2022/06/14 02:06:13;;;;;;;10.47;9.40;;;20.90;99.90;;;;;;5050028;28;20542;-60
2022/06/14 02:08:49;;;;;;;10.07;9.03;;;20.90;99.90;;;;;;5049687;28;20515;-60
2022/06/14 02:11:24;;;;;;;12.20;9.57;;;20.90;99.90;;;;;;5050004;28;20453;-60
2022/06/14 02:13:56;;;;;;;11.23;9.10;;;20.80;99.90;;;;;;5049749;28;20461;-60
2022/06/14 02:16:27;;;;;;;10.97;9.63;;;20.70;99.90;;;;;;5049922;28;20508;-60
2022/06/14 02:18:59;;;;;;;10.27;9.23;;;20.70;99.90;;;;;;5049849;28;20476;-60
2022/06/14 02:21:41;;;;;;;12.10;10.00;;;20.70;99.90;;;;;;5049702;28;20449;-60
2022/06/14 02:24:13;;;;;;;11.00;9.90;;;20.70;99.90;;;;;;5049589;28;20549;-61
2022/06/14 02:26:48;;;;;;;10.40;8.97;;;20.80;99.90;;;;;;5049620;28;20523;-60
2022/06/14 02:29:20;;;;;;;12.60;11.30;;;20.50;99.90;;;;;;5050042;28;20932;-60
2022/06/14 02:31:53;;;;;;;11.70;10.03;;;20.40;99.90;;;;;;5049412;28;20454;-59
2022/06/14 02:34:27;;;;;;;13.43;11.63;;;20.20;99.90;;;;;;5049754;28;20453;-60
2022/06/14 02:37:04;;;;;;;11.97;10.77;;;20.10;99.90;;;;;;5049709;28;20838;-59
2022/06/14 02:39:35;;;;;;;11.10;9.80;;;20.10;99.90;;;;;;5049866;28;20449;-61
2022/06/14 02:42:09;;;;;;;13.47;10.27;;;20.20;99.90;;;;;;5049598;28;20454;-60
2022/06/14 02:44:40;;;;;;;12.57;10.83;;;20.30;99.90;;;;;;5048725;28;20563;-60
2022/06/14 02:47:14;;;;;;;15.40;11.33;;;20.20;99.90;;;;;;5049446;28;21051;-60
2022/06/14 02:49:46;;;;;;;14.93;12.93;;;20.10;99.90;;;;;;5049868;28;20906;-60
2022/06/14 02:52:18;;;;;;;12.77;11.57;;;20.10;99.90;;;;;;5049645;28;20495;-60
2022/06/14 02:54:53;;;;;;;15.70;13.03;;;20.10;99.90;;;;;;5049324;28;20507;-60
2022/06/14 02:57:28;;;;;;;16.50;13.60;;;19.90;99.90;;;;;;5049305;28;20798;-60
2022/06/14 02:59:59;;;;;;;15.30;13.10;;;19.80;99.90;;;;;;5049179;28;20464;-60
2022/06/14 03:02:33;;;;;;;13.73;12.33;;;19.90;99.90;;;;;;5049275;28;20791;-60
2022/06/14 03:05:03;;;;;;;13.47;12.17;;;20.10;99.90;;;;;;5048847;28;20485;-60
2022/06/14 03:07:39;;;;;;;12.97;11.70;;;20.20;99.90;;;;;;5048978;28;20476;-60
2022/06/14 03:10:07;;;;;;;12.77;11.43;;;20.30;99.90;;;;;;5049058;28;20450;-60
2022/06/14 03:12:43;;;;;;;13.90;12.40;;;20.20;99.90;;;;;;5050018;28;20458;-60
2022/06/14 03:15:18;;;;;;;13.67;12.37;;;20.20;99.90;;;;;;5053376;28;20850;-60
2022/06/14 03:17:59;;;;;;;14.87;13.47;;;20.10;99.90;;;;;;5052889;28;20466;-60
2022/06/14 03:20:38;;;;;;;13.70;12.40;;;20.10;99.90;;;;;;5053090;28;20465;-60
2022/06/14 03:23:17;;;;;;;15.67;14.10;;;20.20;99.90;;;;;;5053105;28;20462;-61
2022/06/14 03:25:49;;;;;;;14.60;13.20;;;20.30;99.90;;;;;;5052865;28;20523;-60
2022/06/14 03:28:22;;;;;;;15.10;13.50;;;20.40;99.90;;;;;;5052680;28;21015;-60
2022/06/14 03:30:54;;;;;;;13.77;12.47;;;20.50;99.90;;;;;;5052900;28;20507;-60
2022/06/14 03:33:26;;;;;;;15.43;14.03;;;20.60;99.90;;;;;;5052786;28;20450;-60
2022/06/14 03:35:55;;;;;;;16.47;14.67;;;20.60;99.90;;;;;;5052925;28;20503;-60
2022/06/14 03:38:27;;;;;;;20.43;18.73;;;20.50;99.90;;;;;;5052577;28;20477;-60
2022/06/14 03:40:55;;;;;;;17.23;14.67;;;20.60;99.90;;;;;;5052514;28;20445;-60
2022/06/14 03:43:23;;;;;;;15.83;14.33;;;20.70;99.90;;;;;;5052644;28;20446;-61
2022/06/14 03:46:00;;;;;;;16.87;13.20;;;20.70;99.90;;;;;;5052564;28;20489;-60
2022/06/14 03:48:29;;;;;;;14.33;12.90;;;20.60;99.90;;;;;;5052732;28;20859;-61
2022/06/14 03:51:04;;;;;;;13.47;12.20;;;20.50;99.90;;;;;;5052609;28;20511;-60
2022/06/14 03:53:49;;;;;;;13.70;12.30;;;20.50;99.90;;;;;;5052428;28;20926;-60
2022/06/14 03:56:31;;;;;;;13.90;12.60;;;20.50;99.90;;;;;;5052515;28;20446;-60
2022/06/14 03:59:17;;;;;;;13.83;12.43;;;20.50;99.90;;;;;;5052532;28;20453;-59
2022/06/14 04:01:49;;;;;;;15.77;12.93;;;20.60;99.90;;;;;;5052215;28;20941;-60
2022/06/14 04:04:33;;;;;;;15.00;13.60;;;20.70;99.90;;;;;;5052367;28;20458;-60
2022/06/14 04:07:15;;;;;;;14.43;13.03;;;20.80;99.90;;;;;;5052113;28;20965;-61
2022/06/14 04:09:51;;;;;;;13.37;11.97;;;20.90;99.90;;;;;;5051992;28;20515;-60
2022/06/14 04:12:25;;;;;;;15.27;13.67;;;21.00;99.90;;;;;;5051786;28;20937;-60
2022/06/14 04:15:07;;;;;;;15.17;13.57;;;21.00;99.90;;;;;;5052018;28;20504;-61
2022/06/14 04:17:44;;;;;;;16.57;13.77;;;21.10;99.90;;;;;;5052022;28;21040;-62
2022/06/14 04:20:17;;;;;;;16.10;14.43;;;20.90;99.90;;;;;;5052143;28;20454;-61
2022/06/14 04:22:54;;;;;;;16.00;14.40;;;20.90;99.90;;;;;;5051944;28;20465;-61
2022/06/14 04:25:30;;;;;;;14.17;12.80;;;21.00;99.90;;;;;;5051593;28;20493;-61
2022/06/14 04:28:07;;;;;;;17.47;14.60;;;21.10;99.90;;;;;;5051776;28;20556;-60
2022/06/14 04:30:41;;;;;;;14.77;13.17;;;21.20;99.90;;;;;;5051865;28;20454;-61
2022/06/14 04:33:13;;;;;;;16.60;14.90;;;21.30;99.90;;;;;;5052064;28;20516;-60
2022/06/14 04:35:47;;;;;;;14.77;13.20;;;21.40;99.90;;;;;;5051354;28;20536;-59
2022/06/14 04:38:19;;;;;;;15.53;14.10;;;21.40;99.90;;;;;;5051633;28;20556;-60
2022/06/14 04:40:52;;;;;;;16.00;13.50;;;21.30;99.90;;;;;;5051566;28;20945;-60
2022/06/14 04:43:24;;;;;;;15.40;13.83;;;21.40;99.90;;;;;;5051218;28;20450;-60
2022/06/14 04:45:56;;;;;;;15.70;13.00;;;21.60;99.90;;;;;;5051323;28;20858;-60
2022/06/14 04:48:32;;;;;;;16.63;14.93;;;21.70;99.90;;;;;;5051192;28;20513;-61
2022/06/14 04:51:05;;;;;;;15.87;14.33;;;21.90;99.90;;;;;;5051384;28;20454;-61
2022/06/14 04:53:40;;;;;;;15.47;13.87;;;22.10;99.90;;;;;;5051018;28;20454;-60
2022/06/14 04:56:11;;;;;;;17.07;15.37;;;22.30;99.90;;;;;;5051142;28;20442;-60
2022/06/14 04:58:43;;;;;;;16.43;14.90;;;22.50;99.90;;;;;;5051487;28;20450;-60
2022/06/14 05:01:17;;;;;;;20.33;15.70;;;22.70;99.90;;;;;;5051401;28;20504;-60
2022/06/14 05:03:49;;;;;;;15.83;14.30;;;22.70;99.90;;;;;;5051261;28;21342;-60
2022/06/14 05:06:21;;;;;;;17.30;14.40;;;22.80;99.90;;;;;;5051165;28;20489;-61
2022/06/14 05:08:52;;;;;;;16.60;15.00;;;22.80;99.90;;;;;;5051271;28;20925;-62
2022/06/14 05:11:24;;;;;;;16.30;14.60;;;22.90;99.90;;;;;;5051318;28;20833;-59
2022/06/14 05:13:57;;;;;;;19.00;17.10;;;23.00;99.90;;;;;;5051327;28;20831;-61
2022/06/14 05:16:32;;;;;;;15.13;13.53;;;23.00;99.90;;;;;;5050667;28;20478;-60
2022/06/14 05:19:08;;;;;;;20.73;15.57;;;23.00;99.90;;;;;;5050890;28;20547;-59
2022/06/14 05:21:42;;;;;;;17.23;15.30;;;23.10;99.90;;;;;;5051044;28;20639;-61
2022/06/14 05:24:09;;;;;;;18.23;14.40;;;23.00;99.90;;;;;;5050798;28;20989;-60
2022/06/14 05:26:55;;;;;;;17.83;14.07;;;23.20;99.90;;;;;;5050535;28;20535;-60
2022/06/14 05:29:29;;;;;;;14.80;12.57;;;23.30;99.90;;;;;;5050544;28;20450;-61
2022/06/14 05:32:04;;;;;;;15.57;11.47;;;23.50;99.90;;;;;;5050550;28;20864;-61
2022/06/14 05:34:45;;;;;;;13.90;12.50;;;23.60;99.90;;;;;;5050719;28;20953;-60
2022/06/14 05:37:21;;;;;;;12.10;10.80;;;23.70;99.90;;;;;;5049617;28;20519;-60
2022/06/14 05:39:53;;;;;;;14.57;11.23;;;23.70;99.90;;;;;;5050511;28;20460;-60
2022/06/14 05:42:23;;;;;;;14.50;11.03;;;23.70;99.90;;;;;;5050481;28;20503;-60
2022/06/14 05:44:55;;;;;;;15.77;10.70;;;23.60;99.90;;;;;;5050087;28;20882;-60
2022/06/14 05:47:28;;;;;;;13.20;10.87;;;23.60;99.90;;;;;;5049898;28;20611;-60
2022/06/14 05:50:00;;;;;;;15.87;9.80;;;23.60;99.90;;;;;;5049924;28;20511;-61
2022/06/14 05:52:41;;;;;;;12.83;7.93;;;23.50;99.90;;;;;;5050067;28;20899;-61
2022/06/14 05:55:14;;;;;;;10.83;8.50;;;23.50;99.90;;;;;;5050168;28;20450;-61
2022/06/14 05:57:45;;;;;;;9.83;7.73;;;23.50;99.90;;;;;;5050223;28;20509;-61
2022/06/14 06:00:17;;;;;;;9.13;7.50;;;23.30;99.90;;;;;;5050107;28;20458;-61
2022/06/14 06:02:52;;;;;;;9.43;7.10;;;23.10;99.90;;;;;;5050183;28;20449;-60
2022/06/14 06:05:25;;;;;;;8.93;7.40;;;22.90;99.90;;;;;;5050028;28;20511;-60
2022/06/14 06:07:57;;;;;;;7.77;6.93;;;22.80;99.90;;;;;;5050150;28;20474;-60
2022/06/14 06:10:27;;;;;;;8.93;7.60;;;22.90;99.90;;;;;;5049953;28;20953;-60
2022/06/14 06:12:59;;;;;;;9.57;7.50;;;22.90;99.90;;;;;;5049879;28;20522;-61
2022/06/14 06:15:30;;;;;;;10.43;8.50;;;22.90;99.90;;;;;;5049668;28;20503;-59
2022/06/14 06:18:04;;;;;;;9.63;7.70;;;22.90;99.90;;;;;;5049742;28;20550;-60
2022/06/14 06:20:36;;;;;;;9.00;7.93;;;22.90;99.90;;;;;;5049247;28;20454;-60
2022/06/14 06:23:10;;;;;;;9.70;8.03;;;23.00;99.90;;;;;;5049691;28;20879;-60
2022/06/14 06:25:41;;;;;;;9.30;7.50;;;23.00;99.90;;;;;;5049577;28;20488;-61
2022/06/14 06:28:13;;;;;;;8.23;7.40;;;22.90;99.90;;;;;;5049431;28;21009;-61
2022/06/14 06:30:43;;;;;;;9.00;7.57;;;22.90;99.90;;;;;;5049761;28;20670;-59
2022/06/14 06:33:13;;;;;;;8.60;7.70;;;22.80;99.90;;;;;;5049789;28;20450;-63
2022/06/14 06:35:46;;;;;;;9.67;8.03;;;22.80;99.90;;;;;;5049428;28;20460;-63
2022/06/14 06:38:23;;;;;;;8.87;7.60;;;22.80;99.90;;;;;;5049427;28;20462;-61
2022/06/14 06:43:46;;;;;;;9.70;8.70;;;22.80;99.90;;;;;;5049086;28;20588;-61
2022/06/14 06:46:15;;;;;;;8.20;7.23;;;22.70;99.90;;;;;;5049322;28;20490;-67
2022/06/14 06:48:51;;;;;;;8.47;7.50;;;22.80;99.90;;;;;;5053624;28;20473;-58
2022/06/14 06:51:23;;;;;;;8.87;7.97;;;22.90;99.90;;;;;;5053478;28;20457;-59
2022/06/14 06:53:57;;;;;;;10.30;7.50;;;22.90;99.90;;;;;;5042837;28;20446;-59
2022/06/14 06:56:28;;;;;;;9.83;7.67;;;23.00;99.90;;;;;;5033414;28;20827;-58
2022/06/14 06:58:59;;;;;;;11.50;8.60;;;23.00;99.90;;;;;;5045103;28;20527;-58
2022/06/14 07:01:30;;;;;;;12.33;7.93;;;23.00;99.90;;;;;;5053354;28;20457;-58
2022/06/14 07:04:03;;;;;;;10.93;7.97;;;23.10;99.90;;;;;;5053393;28;20457;-58
2022/06/14 07:06:36;;;;;;;11.73;8.67;;;23.00;99.90;;;;;;5052911;28;20492;-58
2022/06/14 07:09:11;;;;;;;9.53;8.43;;;23.00;99.90;;;;;;5052723;28;20979;-58
2022/06/14 07:11:45;;;;;;;8.17;7.37;;;23.10;99.90;;;;;;5053130;28;20465;-57
2022/06/14 07:14:16;;;;;;;15.13;8.40;;;23.10;99.90;;;;;;5053458;28;20492;-58
2022/06/14 07:16:52;;;;;;;8.90;7.33;;;23.10;99.90;;;;;;5052999;28;20465;-58
2022/06/14 07:19:28;;;;;;;9.43;7.30;;;23.10;99.90;;;;;;5052857;28;20460;-59
2022/06/14 07:22:03;;;;;;;8.80;7.13;;;23.20;99.90;;;;;;5053027;28;20507;-59
2022/06/14 07:24:34;;;;;;;10.30;7.90;;;23.30;99.90;;;;;;5053013;28;20460;-59
2022/06/14 07:27:06;;;;;;;9.23;8.13;;;23.40;99.90;;;;;;5052926;28;20501;-59
2022/06/14 07:29:37;;;;;;;8.10;7.30;;;23.60;99.90;;;;;;5052593;28;20457;-58
2022/06/14 07:32:09;;;;;;;16.33;7.87;;;23.80;99.90;;;;;;5052737;28;20453;-59
2022/06/14 07:34:39;;;;;;;9.03;7.87;;;23.90;99.90;;;;;;5052500;28;20458;-59
2022/06/14 07:37:11;;;;;;;9.43;8.07;;;24.00;99.90;;;;;;5052486;28;20528;-59
2022/06/14 07:39:42;;;;;;;8.67;7.87;;;24.10;99.90;;;;;;5052871;28;20461;-58
2022/06/14 07:42:17;;;;;;;11.17;6.77;;;24.10;99.90;;;;;;5052598;28;20458;-58
2022/06/14 07:44:51;;;;;;;9.03;7.70;;;24.20;99.90;;;;;;5052222;28;20805;-59
2022/06/14 07:47:24;;;;;;;15.83;8.20;;;24.40;99.90;;;;;;5052346;28;20497;-58
2022/06/14 07:50:02;;;;;;;7.60;6.53;;;24.40;99.90;;;;;;5052555;28;20442;-58
2022/06/14 07:52:35;;;;;;;11.70;7.00;;;24.40;99.90;;;;;;5052234;28;20617;-58
2022/06/14 07:55:08;;;;;;;8.10;7.20;;;24.60;99.90;;;;;;5052426;28;20457;-59
2022/06/14 07:57:39;;;;;;;12.10;7.50;;;24.60;99.90;;;;;;5052258;28;20840;-59
2022/06/14 08:03:04;;;;;;;9.00;7.40;;;24.60;99.90;;;;;;5052326;28;20425;-63
2022/06/14 08:05:37;;;;;;;9.53;7.50;;;24.80;99.90;;;;;;5052256;28;21217;-67
2022/06/14 08:08:08;;;;;;;9.03;7.03;;;24.90;99.90;;;;;;5051857;28;20485;-63
2022/06/14 08:10:42;;;;;;;8.63;7.73;;;25.00;99.90;;;;;;5052120;28;20946;-61
2022/06/14 08:13:11;;;;;;;9.33;8.33;;;25.30;99.90;;;;;;5051960;28;20551;-61
2022/06/14 08:15:41;;;;;;;10.10;7.10;;;25.50;99.90;;;;;;5051600;28;20822;-60
2022/06/14 08:18:13;;;;;;;9.37;7.60;;;25.70;99.90;;;;;;5051111;28;20813;-63
2022/06/14 08:20:46;;;;;;;14.27;8.43;;;25.90;99.90;;;;;;5051686;28;20453;-61
2022/06/14 08:23:19;;;;;;;11.93;7.43;;;25.90;99.90;;;;;;5051797;28;20489;-60
2022/06/14 08:25:49;;;;;;;10.57;9.50;;;25.90;99.90;;;;;;5051535;28;20799;-63
2022/06/14 08:28:21;;;;;;;13.10;8.10;;;25.90;99.90;;;;;;5051480;28;20904;-63
2022/06/14 08:30:56;;;;;;;8.60;7.63;;;26.00;99.90;;;;;;5052064;28;20462;-63
2022/06/14 08:33:28;;;;;;;8.70;7.83;;;26.10;99.90;;;;;;5051798;28;20631;-62
2022/06/14 08:35:59;;;;;;;8.17;7.37;;;26.60;99.90;;;;;;5051803;28;20454;-62
2022/06/14 08:38:31;;;;;;;10.13;6.83;;;26.90;99.90;;;;;;5051328;28;20887;-64
2022/06/14 08:41:22;;;;;;;7.43;6.37;;;27.00;99.90;;;;;;5051147;28;20522;-63
2022/06/14 08:43:54;;;;;;;8.93;6.07;;;27.20;99.90;;;;;;5050917;28;20551;-62
2022/06/14 08:46:28;;;;;;;8.67;7.40;;;27.50;99.90;;;;;;5050820;28;20478;-63
2022/06/14 08:49:09;;;;;;;7.87;7.07;;;27.70;99.90;;;;;;5051135;28;20523;-61
2022/06/14 08:51:49;;;;;;;10.03;6.40;;;27.90;99.90;;;;;;5051356;28;20450;-61
2022/06/14 08:54:47;;;;;;;6.83;6.13;;;28.30;99.90;;;;;;5031223;28;20450;-60
2022/06/14 08:57:49;;;;;;;7.10;6.40;;;28.60;99.90;;;;;;5030899;28;20521;-62
2022/06/14 09:00:32;;;;;;;10.40;7.30;;;28.50;99.90;;;;;;5021032;28;20947;-62
2022/06/14 09:03:41;;;;;;;9.03;5.83;;;28.10;99.90;;;;;;5031242;28;20525;-62
2022/06/14 09:06:36;;;;;;;9.00;5.50;;;27.90;99.90;;;;;;5020768;28;20839;-62
2022/06/14 09:09:49;;;;;;;7.23;6.03;;;27.60;99.90;;;;;;5030449;28;20812;-62
2022/06/14 09:12:36;;;;;;;8.30;6.10;;;27.40;99.90;;;;;;5014864;28;20971;-62
2022/06/14 09:15:46;;;;;;;7.50;5.70;;;27.40;99.90;;;;;;5030814;28;20451;-61
2022/06/14 09:18:40;;;;;;;8.90;6.20;;;27.00;99.90;;;;;;5030448;28;20463;-61
2022/06/14 09:21:24;;;;;;;6.87;6.17;;;27.00;99.90;;;;;;5030748;28;20455;-61
2022/06/14 09:24:11;;;;;;;8.20;6.07;;;27.00;99.90;;;;;;5030758;28;20512;-62
2022/06/14 09:27:02;;;;;;;8.03;5.57;;;26.90;99.90;;;;;;5030067;28;20524;-61
2022/06/14 09:29:57;;;;;;;8.33;5.67;;;26.80;99.90;;;;;;5030208;28;20447;-61
2022/06/14 09:35:59;;;;;;;11.17;6.13;;;26.70;99.90;;;;;;5028468;28;20446;-61
2022/06/14 09:38:48;;;;;;;6.87;5.10;;;26.70;99.90;;;;;;5027965;28;20718;-62
2022/06/14 09:41:28;;;;;;;12.13;5.67;;;26.80;99.90;;;;;;5030091;28;20458;-61
2022/06/14 09:44:27;;;;;;;7.37;6.43;;;26.90;99.90;;;;;;5029856;28;20512;-62
2022/06/14 09:47:24;;;;;;;8.33;5.77;;;27.00;99.90;;;;;;5002965;28;20569;-61
2022/06/14 09:50:22;;;;;;;7.37;6.57;;;26.90;99.90;;;;;;5029964;28;20455;-63
2022/06/14 09:53:08;;;;;;;6.97;5.97;;;26.70;99.90;;;;;;5039938;28;20515;-62
2022/06/14 09:56:11;;;;;;;8.13;6.57;;;26.50;99.90;;;;;;5049921;28;20488;-63
2022/06/14 09:59:08;;;;;;;10.80;6.67;;;26.40;99.90;;;;;;5039221;28;20491;-62
2022/06/14 10:01:43;;;;;;;10.10;6.10;;;26.30;99.90;;;;;;5048310;28;20500;-62
2022/06/14 10:04:46;;;;;;;7.63;6.53;;;26.10;99.90;;;;;;5049826;28;20514;-61
2022/06/14 10:07:32;;;;;;;6.97;5.50;;;25.90;99.90;;;;;;5039191;28;20582;-60
2022/06/14 10:10:24;;;;;;;7.97;5.00;;;25.60;99.90;;;;;;5049655;28;20457;-57
2022/06/14 10:13:16;;;;;;;7.17;4.90;;;25.40;99.90;;;;;;5049776;28;20760;-56
2022/06/14 10:15:54;;;;;;;12.97;6.23;;;25.30;99.90;;;;;;5049549;28;20453;-59
2022/06/14 10:18:43;;;;;;;10.80;6.77;;;25.30;99.90;;;;;;5049450;28;20469;-59
2022/06/14 10:21:15;;;;;;;10.40;7.17;;;24.90;99.90;;;;;;5049348;28;20488;-59
2022/06/14 10:23:58;;;;;;;7.17;5.70;;;24.30;99.90;;;;;;5049348;28;20529;-60
2022/06/14 10:29:39;;;;;;;6.50;4.47;;;23.70;99.90;;;;;;5049074;28;20936;-60
2022/06/14 10:32:33;;;;;;;10.00;5.50;;;23.40;99.90;;;;;;5049373;28;20792;-61
2022/06/14 10:35:06;;;;;;;10.73;5.83;;;23.10;99.90;;;;;;5029982;28;20458;-60
2022/06/14 10:37:55;;;;;;;8.40;6.57;;;22.90;99.90;;;;;;5049416;28;20474;-60
2022/06/14 10:40:42;;;;;;;8.40;4.77;;;22.50;99.90;;;;;;5049079;28;20949;-59
2022/06/14 10:43:16;;;;;;;7.73;5.27;;;22.20;99.90;;;;;;5049357;28;20458;-60
2022/06/14 10:45:49;;;;;;;7.40;4.20;;;22.10;99.90;;;;;;5049392;28;20489;-59
2022/06/14 10:48:41;;;;;;;6.70;4.37;;;21.80;99.90;;;;;;5049072;28;20592;-61
2022/06/14 10:51:25;;;;;;;6.20;4.20;;;21.70;99.90;;;;;;5048815;28;20453;-58
2022/06/14 10:53:58;;;;;;;9.30;4.40;;;21.70;99.90;;;;;;5049096;28;20548;-59
2022/06/14 10:56:54;;;;;;;6.30;4.10;;;21.50;99.90;;;;;;5049079;28;20476;-59
2022/06/14 11:00:08;;;;;;;5.33;3.73;;;21.40;99.90;;;;;;5036609;28;20515;-59
2022/06/14 11:03:00;;;;;;;9.67;4.23;;;21.40;99.90;;;;;;4987227;28;20961;-60
2022/06/14 11:05:38;;;;;;;8.93;4.73;;;21.50;99.90;;;;;;5049427;28;20857;-59
2022/06/14 11:08:21;;;;;;;6.60;5.10;;;21.50;99.90;;;;;;5049046;28;20547;-60
2022/06/14 11:11:06;;;;;;;9.27;4.43;;;21.70;99.90;;;;;;5049029;28;20519;-61
2022/06/14 11:13:44;;;;;;;9.90;7.50;;;21.80;99.90;;;;;;5049201;28;20458;-60
2022/06/14 11:16:21;;;;;;;20.30;6.33;;;21.80;99.90;;;;;;5049079;28;20815;-60
2022/06/14 11:19:17;;;;;;;7.13;4.90;;;21.90;99.90;;;;;;5049093;28;20546;-60
2022/06/14 11:21:54;;;;;;;9.30;5.43;;;21.90;99.90;;;;;;5048993;28;20489;-61
2022/06/14 11:24:28;;;;;;;7.73;6.30;;;22.00;99.90;;;;;;5048631;28;20457;-60
2022/06/14 11:27:01;;;;;;;7.73;5.70;;;21.90;99.90;;;;;;5048848;28;20474;-60
2022/06/14 11:29:40;;;;;;;10.17;6.50;;;21.70;99.90;;;;;;5048786;28;20550;-60
2022/06/14 11:32:15;;;;;;;7.00;4.50;;;21.60;99.90;;;;;;5048792;28;20454;-60
2022/06/14 11:34:54;;;;;;;8.80;5.23;;;21.40;99.90;;;;;;5051491;28;20461;-60
2022/06/14 11:37:48;;;;;;;10.20;4.47;;;21.30;99.90;;;;;;5052369;28;20483;-61
2022/06/14 11:40:19;;;;;;;6.63;4.30;;;21.40;99.90;;;;;;5052439;28;20536;-59
2022/06/14 11:43:01;;;;;;;7.80;4.17;;;21.40;99.90;;;;;;5052388;28;20461;-59
2022/06/14 11:45:39;;;;;;;6.03;4.00;;;21.30;99.90;;;;;;5052577;28;20853;-60
2022/06/14 11:48:14;;;;;;;7.17;4.10;;;21.40;99.90;;;;;;5052448;28;20545;-61
2022/06/14 11:50:46;;;;;;;6.27;4.40;;;21.70;99.90;;;;;;5052490;28;20453;-60
2022/06/14 11:54:03;;;;;;;7.00;3.70;;;22.20;99.90;;;;;;5051906;28;20507;-61
2022/06/14 11:56:39;;;;;;;8.63;3.30;;;23.00;99.90;;;;;;5009183;28;20979;-61
2022/06/14 11:59:37;;;;;;;6.60;3.10;;;23.50;99.90;;;;;;5009736;28;21003;-59
2022/06/14 12:02:25;;;;;;;6.47;3.17;;;23.80;99.90;;;;;;5044779;28;20450;-60
2022/06/14 12:05:06;;;;;;;9.10;6.30;;;24.00;99.90;;;;;;5051669;28;20519;-61
2022/06/14 12:07:38;;;;;;;9.30;7.60;;;24.20;99.90;;;;;;5051740;28;20489;-60
2022/06/14 12:10:29;;;;;;;7.10;4.37;;;24.40;99.90;;;;;;5051910;28;20457;-61
2022/06/14 12:13:09;;;;;;;7.40;5.50;;;24.50;99.90;;;;;;5051893;28;20456;-60
2022/06/14 12:15:46;;;;;;;8.60;5.50;;;24.40;99.90;;;;;;5051832;28;20445;-60
2022/06/14 12:18:18;;;;;;;12.00;6.43;;;24.40;99.90;;;;;;5050268;28;20472;-61
2022/06/14 12:20:55;;;;;;;9.33;7.00;;;24.30;99.90;;;;;;5051599;28;20446;-61
2022/06/14 12:23:30;;;;;;;8.10;5.73;;;24.10;99.90;;;;;;5052093;28;20450;-60
2022/06/14 12:29:00;;;;;;;7.43;4.47;;;23.50;99.90;;;;;;5051714;28;20477;-60
2022/06/14 12:31:38;;;;;;;10.00;4.97;;;23.00;99.90;;;;;;5051755;28;20453;-64
2022/06/14 12:34:14;;;;;;;6.57;4.77;;;22.70;99.90;;;;;;5051735;28;20584;-61
2022/06/14 12:36:48;;;;;;;7.23;4.70;;;22.60;99.90;;;;;;5051867;28;20560;-61
2022/06/14 12:39:22;;;;;;;7.13;5.20;;;22.60;99.90;;;;;;5051826;28;20442;-61
2022/06/14 12:42:03;;;;;;;7.67;6.30;;;22.80;99.90;;;;;;5051754;28;20454;-61
2022/06/14 12:44:47;;;;;;;7.20;6.50;;;23.00;99.90;;;;;;5050814;28;20516;-62
2022/06/14 12:47:20;;;;;;;9.40;6.90;;;23.20;99.90;;;;;;5051236;28;21008;-62
2022/06/14 12:49:53;;;;;;;8.83;7.70;;;23.40;99.90;;;;;;5050912;28;20946;-61
2022/06/14 12:52:26;;;;;;;8.67;7.27;;;23.60;99.90;;;;;;5051252;28;20449;-62
2022/06/14 12:54:59;;;;;;;11.63;9.33;;;23.90;99.90;;;;;;5051290;28;20511;-61
2022/06/14 12:57:43;;;;;;;9.73;6.83;;;24.40;99.90;;;;;;5051227;28;20470;-61
2022/06/14 13:00:20;;;;;;;8.73;6.17;;;24.70;99.90;;;;;;5051313;28;20454;-62
2022/06/14 13:02:57;;;;;;;6.70;5.13;;;25.10;99.90;;;;;;5051208;28;20450;-61
2022/06/14 13:05:29;;;;;;;7.37;5.40;;;25.50;99.90;;;;;;5050982;28;20457;-62
2022/06/14 13:08:11;;;;;;;10.67;5.80;;;25.60;99.90;;;;;;5050743;28;20490;-61
2022/06/14 13:10:51;;;;;;;7.67;5.67;;;25.70;99.90;;;;;;5051055;28;20840;-66
2022/06/14 13:13:47;;;;;;;7.70;5.70;;;26.00;99.90;;;;;;5050962;28;20454;-61
2022/06/14 13:16:27;;;;;;;8.00;4.77;;;26.30;99.90;;;;;;5044035;28;20454;-61
2022/06/14 13:19:02;;;;;;;5.80;4.70;;;26.90;99.90;;;;;;5050892;28;20860;-61
2022/06/14 13:21:51;;;;;;;5.37;3.77;;;27.30;99.90;;;;;;5050839;28;20475;-61
2022/06/14 13:24:27;;;;;;;7.57;4.10;;;27.80;99.90;;;;;;5050539;28;20788;-61
2022/06/14 13:27:05;;;;;;;6.67;4.50;;;28.20;99.90;;;;;;5050571;28;20465;-61
2022/06/14 13:29:44;;;;;;;7.57;4.90;;;28.60;99.90;;;;;;5050713;28;20664;-62
2022/06/14 13:32:46;;;;;;;5.47;3.10;;;28.90;99.90;;;;;;5050770;28;20515;-62
2022/06/14 13:35:52;;;;;;;4.70;2.53;;;28.80;99.90;;;;;;5048443;28;20504;-61
2022/06/14 13:38:28;;;;;;;5.47;2.80;;;28.80;99.90;;;;;;5007673;28;21058;-61
2022/06/14 13:41:05;;;;;;;10.23;2.47;;;29.00;99.90;;;;;;5045269;28;20937;-61
2022/06/14 13:43:36;;;;;;;5.30;2.73;;;29.00;99.90;;;;;;5050122;28;20461;-62
2022/06/14 13:46:08;;;;;;;5.10;2.60;;;29.30;99.90;;;;;;5049891;28;20481;-62
2022/06/14 13:48:41;;;;;;;4.27;2.50;;;29.60;99.90;;;;;;5050209;28;20512;-62
2022/06/14 13:51:32;;;;;;;4.40;2.60;;;29.80;99.90;;;;;;5050363;28;20454;-62